Port William, Ohio
Current Conditions -  °F | °C
As of 11:54 AM on Tuesday 27 Jan 2015 (Local Time) from KILN Reporting Station
Overcast Overcast  
Wind Chill:   Ceiling: 12000
Heat Index: 20°   Visibility: 10mi
Dew Point: 12°   Wind: 10mph
Humidity: 71%   Direction: 30°NNE
Pressure: 30.06"   Gusts: NA
Location:  39.55°N, 83.79°W
Report Text: KILN 271654Z AUTO 03009KT 10SM OVC120 M07/M11 A3006 RMK AO2 SLP221 T10671111
Loading
Personal Weather Stations






























Interactive Weather Map New forecast layout! Learn more

10-Day Weather Forecast

Advertisements
Track Severe Weather on mobile